Terminal Aerodrome Forecast
Issued by NWS Wilmington, NC

Home | Current Version | Previous Version | Text Only | Print | Product List | Glossary On
Versions: 1 2 3 4 5 6 7 8 9 10 11 12 13 14 15 16 17 18 19 20
000
FTUS42 KILM 041259 AAA
TAFMYR
TAF AMD
KMYR 041259Z 0413/0512 17013G19KT P6SM VCSH BKN020
      TEMPO 0416/0419 4SM SHRA BKN016
     FM041900 21006KT P6SM BKN080=

USA.gov is the U.S. government's official web portal to all federal, state and local government web resources and services.